Time;durP1;ratioP1;P1;durP2;ratioP2;P2;SDS_P1;SDS_P2;PMS_P1;PMS_P2;Temp;Humidity;BMP_temperature;BMP_pressure;BME280_temperature;BME280_humidity;BME280_pressure;Samples;Min_cycle;Max_cycle;Signal;HPM_P1;HPM_P2
2022/05/08 00:00:04;;;;;;;22.70;6.43;;;16.10;78.90;;;;;;5067593;28;20411;-69
2022/05/08 00:02:40;;;;;;;22.90;6.32;;;16.10;79.10;;;;;;5062619;28;20411;-71
2022/05/08 00:05:07;;;;;;;23.23;6.70;;;16.10;79.20;;;;;;5068946;28;20818;-70
2022/05/08 00:07:35;;;;;;;24.13;6.45;;;16.00;79.30;;;;;;5066576;28;20428;-68
2022/05/08 00:10:01;;;;;;;20.45;5.70;;;15.90;79.40;;;;;;5068655;28;20461;-69
2022/05/08 00:12:27;;;;;;;22.13;6.20;;;15.80;79.70;;;;;;5066695;28;20895;-69
2022/05/08 00:14:52;;;;;;;25.73;6.90;;;15.80;80.00;;;;;;5064499;28;20454;-69
2022/05/08 00:17:18;;;;;;;20.23;6.10;;;15.80;80.10;;;;;;5064374;28;20416;-69
2022/05/08 00:19:47;;;;;;;23.55;5.97;;;15.70;80.10;;;;;;5067067;28;20927;-69
2022/05/08 00:22:13;;;;;;;21.40;6.07;;;15.70;80.40;;;;;;5065919;28;20737;-69
2022/05/08 00:24:40;;;;;;;27.20;6.32;;;15.70;80.50;;;;;;5063505;28;20460;-69
2022/05/08 00:27:06;;;;;;;24.35;6.30;;;15.60;80.60;;;;;;5065781;28;20423;-69
2022/05/08 00:29:32;;;;;;;20.50;5.85;;;15.60;80.90;;;;;;5049337;28;20761;-69
2022/05/08 00:31:58;;;;;;;24.55;6.00;;;15.50;81.10;;;;;;5065087;28;20419;-70
2022/05/08 00:34:24;;;;;;;27.55;6.28;;;15.50;81.30;;;;;;5066563;28;20403;-70
2022/05/08 00:36:51;;;;;;;27.10;6.67;;;15.50;81.30;;;;;;5047736;28;20415;-70
2022/05/08 00:39:18;;;;;;;22.27;5.97;;;15.40;81.50;;;;;;5067198;28;20635;-70
2022/05/08 00:41:47;;;;;;;23.98;6.22;;;15.00;82.10;;;;;;5068005;28;20915;-70
2022/05/08 00:44:13;;;;;;;23.88;6.10;;;15.20;82.60;;;;;;5062919;28;20923;-69
2022/05/08 00:46:40;;;;;;;27.92;6.25;;;15.20;82.40;;;;;;5066026;28;20414;-70
2022/05/08 00:49:06;;;;;;;30.50;6.00;;;15.20;82.20;;;;;;5066485;28;20408;-70
2022/05/08 00:51:32;;;;;;;21.83;5.80;;;15.20;82.20;;;;;;5066522;28;20418;-70
2022/05/08 00:54:01;;;;;;;22.80;5.55;;;15.20;82.50;;;;;;5063918;28;20444;-70
2022/05/08 00:56:27;;;;;;;24.17;5.63;;;15.10;82.60;;;;;;5066148;28;20888;-71
2022/05/08 00:58:54;;;;;;;22.48;5.28;;;15.10;82.60;;;;;;5064631;28;20418;-69
2022/05/08 01:01:20;;;;;;;25.57;5.60;;;15.00;82.70;;;;;;5066729;28;20495;-70
2022/05/08 01:03:45;;;;;;;27.00;5.97;;;15.00;82.70;;;;;;5063385;28;20599;-69
2022/05/08 01:06:13;;;;;;;22.80;5.30;;;15.00;82.90;;;;;;5067789;28;20860;-70
2022/05/08 01:08:41;;;;;;;21.63;4.50;;;15.00;82.60;;;;;;5066481;28;20862;-70
2022/05/08 01:11:07;;;;;;;23.38;5.07;;;14.90;82.60;;;;;;5064561;28;20410;-68
2022/05/08 01:13:33;;;;;;;24.63;4.93;;;14.90;82.50;;;;;;5063444;28;20423;-68
2022/05/08 01:15:59;;;;;;;25.30;4.97;;;14.90;82.70;;;;;;5064673;28;20419;-68
2022/05/08 01:18:25;;;;;;;26.20;5.13;;;14.80;82.80;;;;;;5047419;28;20417;-68
2022/05/08 01:20:52;;;;;;;25.67;5.18;;;14.80;82.80;;;;;;5066042;28;20425;-68
2022/05/08 01:23:19;;;;;;;24.63;4.55;;;14.80;82.80;;;;;;5063415;28;20428;-68
2022/05/08 01:25:55;;;;;;;26.50;5.00;;;14.70;82.80;;;;;;5061715;28;20419;-68
2022/05/08 01:28:23;;;;;;;25.03;4.57;;;14.70;82.80;;;;;;5067572;28;20399;-68
2022/05/08 01:30:53;;;;;;;24.95;4.95;;;14.70;82.70;;;;;;5065051;28;20573;-67
2022/05/08 01:33:20;;;;;;;26.40;5.37;;;14.70;82.60;;;;;;5060895;28;20926;-69
2022/05/08 01:35:49;;;;;;;22.92;4.55;;;14.60;82.30;;;;;;5066118;28;20403;-68
2022/05/08 01:38:17;;;;;;;26.73;5.13;;;14.60;82.50;;;;;;5066656;28;20895;-69
2022/05/08 01:40:45;;;;;;;24.50;4.75;;;14.60;82.50;;;;;;5067090;28;20429;-68
2022/05/08 01:43:12;;;;;;;26.77;5.18;;;14.50;82.40;;;;;;5064279;28;20408;-69
2022/05/08 01:45:39;;;;;;;27.63;5.10;;;14.50;82.40;;;;;;5064739;28;20414;-68
2022/05/08 01:48:25;;;;;;;22.13;4.63;;;14.50;82.50;;;;;;5065068;28;20411;-68
2022/05/08 01:50:56;;;;;;;22.75;4.40;;;14.50;82.40;;;;;;5067005;28;20447;-68
2022/05/08 01:53:26;;;;;;;25.90;4.90;;;14.40;82.30;;;;;;5064057;28;20436;-69
2022/05/08 01:55:54;;;;;;;25.90;4.70;;;14.40;82.10;;;;;;5066523;28;20403;-70
2022/05/08 01:58:24;;;;;;;25.67;4.43;;;14.40;82.00;;;;;;5063473;28;20480;-68
2022/05/08 02:00:51;;;;;;;27.75;4.60;;;14.40;81.80;;;;;;5066617;28;20444;-68
2022/05/08 02:03:18;;;;;;;26.05;4.90;;;14.40;81.80;;;;;;5064322;28;20443;-68
2022/05/08 02:05:44;;;;;;;30.13;5.22;;;14.30;81.90;;;;;;5054935;28;20409;-67
2022/05/08 02:08:11;;;;;;;22.50;4.43;;;14.30;82.00;;;;;;5063447;28;20780;-69
2022/05/08 02:10:38;;;;;;;29.27;4.93;;;14.30;81.90;;;;;;5063341;28;20403;-68
2022/05/08 02:13:07;;;;;;;28.60;4.65;;;14.30;81.90;;;;;;5065988;28;20494;-68
2022/05/08 02:15:32;;;;;;;23.58;4.40;;;14.20;81.80;;;;;;5065152;28;20415;-68
2022/05/08 02:18:06;;;;;;;20.92;4.28;;;14.20;82.00;;;;;;5062504;28;20915;-68
2022/05/08 02:20:32;;;;;;;30.48;5.03;;;14.20;81.90;;;;;;5067022;28;20772;-69
2022/05/08 02:22:59;;;;;;;24.05;4.18;;;14.20;82.00;;;;;;5063939;28;20414;-69
2022/05/08 02:25:25;;;;;;;28.08;4.75;;;14.10;81.90;;;;;;5066583;28;20408;-68
2022/05/08 02:27:51;;;;;;;27.13;4.93;;;14.10;82.00;;;;;;5064759;28;21130;-69
2022/05/08 02:30:20;;;;;;;22.83;4.43;;;14.10;82.20;;;;;;5064638;28;20418;-68
2022/05/08 02:32:46;;;;;;;26.75;4.88;;;14.10;82.20;;;;;;5062165;28;20421;-68
2022/05/08 02:35:12;;;;;;;28.10;4.82;;;14.00;82.10;;;;;;5047797;28;20415;-68
2022/05/08 02:37:41;;;;;;;24.53;4.70;;;14.00;82.20;;;;;;5063240;28;20424;-68
2022/05/08 02:40:08;;;;;;;25.08;4.53;;;14.10;82.30;;;;;;5065258;28;20425;-68
2022/05/08 02:42:38;;;;;;;30.25;4.65;;;14.00;83.20;;;;;;5064651;28;20395;-68
2022/05/08 02:45:08;;;;;;;23.13;4.90;;;14.00;82.50;;;;;;5069217;28;20403;-68
2022/05/08 02:47:34;;;;;;;26.15;5.13;;;13.90;82.60;;;;;;5067524;28;20399;-67
2022/05/08 02:50:00;;;;;;;28.80;4.95;;;13.90;83.50;;;;;;5069910;28;20399;-68
2022/05/08 02:52:26;;;;;;;24.23;4.57;;;13.90;83.00;;;;;;5069028;28;20457;-69
2022/05/08 02:54:51;;;;;;;25.48;4.78;;;13.90;83.10;;;;;;5063646;28;20498;-68
2022/05/08 03:00:05;;;;;;;22.37;4.50;;;13.80;83.50;;;;;;5067928;28;20779;-68
2022/05/08 03:02:33;;;;;;;28.48;5.13;;;13.80;83.60;;;;;;5067872;28;20411;-68
2022/05/08 03:04:59;;;;;;;;;;;13.80;83.70;;;;;;5069711;28;20481;-69
2022/05/08 03:07:27;;;;;;;19.88;4.07;;;13.40;83.70;;;;;;5069833;28;20203;-69
2022/05/08 03:09:52;;;;;;;20.17;4.40;;;13.20;85.00;;;;;;5067509;28;20405;-67
2022/05/08 03:12:18;;;;;;;27.00;4.70;;;13.40;85.50;;;;;;5065759;28;20407;-69
2022/05/08 03:14:44;;;;;;;24.60;4.80;;;13.50;85.20;;;;;;5068228;28;20391;-69
2022/05/08 03:17:10;;;;;;;31.90;5.18;;;13.60;85.10;;;;;;5051266;28;20419;-68
2022/05/08 03:19:36;;;;;;;25.83;5.68;;;13.60;85.00;;;;;;5062853;28;20422;-69
2022/05/08 03:22:02;;;;;;;33.80;6.03;;;13.60;85.20;;;;;;5069926;28;20543;-69
2022/05/08 03:24:29;;;;;;;31.77;5.50;;;13.60;85.30;;;;;;5066937;28;20942;-70
2022/05/08 03:26:56;;;;;;;34.40;5.70;;;13.50;85.50;;;;;;5068491;28;20398;-68
2022/05/08 03:29:25;;;;;;;21.77;5.60;;;13.50;85.70;;;;;;5068418;28;20414;-69
2022/05/08 03:31:50;;;;;;;28.67;5.35;;;13.50;85.70;;;;;;5066221;28;20900;-69
2022/05/08 03:34:17;;;;;;;32.03;5.63;;;13.50;85.80;;;;;;5068282;28;20437;-70
2022/05/08 03:36:44;;;;;;;27.80;5.38;;;13.50;85.90;;;;;;5067570;28;20494;-67
2022/05/08 03:39:11;;;;;;;30.40;5.70;;;13.50;85.90;;;;;;5068786;28;20411;-69
2022/05/08 03:41:37;;;;;;;28.77;5.10;;;13.50;86.30;;;;;;5065522;28;20437;-69
2022/05/08 03:44:03;;;;;;;35.63;5.63;;;13.40;86.30;;;;;;5066707;28;20387;-69
2022/05/08 03:46:29;;;;;;;26.80;4.97;;;13.40;86.40;;;;;;5068020;28;20514;-70
2022/05/08 03:48:55;;;;;;;28.63;5.38;;;13.40;86.50;;;;;;5069894;28;20412;-68
2022/05/08 03:51:20;;;;;;;30.50;5.57;;;13.40;86.70;;;;;;5064747;28;20412;-69
2022/05/08 03:53:46;;;;;;;28.98;4.90;;;13.40;86.70;;;;;;5065887;28;20428;-69
2022/05/08 03:56:12;;;;;;;28.07;4.97;;;13.40;86.90;;;;;;5065366;28;20511;-69
2022/05/08 03:58:39;;;;;;;29.92;5.63;;;13.40;86.90;;;;;;5069227;28;20965;-69
2022/05/08 04:01:06;;;;;;;27.30;5.50;;;13.30;87.10;;;;;;5064541;28;20468;-68
2022/05/08 04:03:31;;;;;;;29.27;5.18;;;13.30;87.30;;;;;;5067657;28;20415;-69
2022/05/08 04:05:57;;;;;;;28.33;5.72;;;13.30;87.50;;;;;;5064848;28;20395;-69
2022/05/08 04:08:23;;;;;;;26.90;5.70;;;13.20;87.60;;;;;;5069371;28;20411;-68
2022/05/08 04:10:48;;;;;;;27.00;5.47;;;13.20;87.70;;;;;;5066549;28;20416;-69
2022/05/08 04:13:14;;;;;;;29.03;4.83;;;13.20;87.80;;;;;;5068764;28;20461;-70
2022/05/08 04:18:24;;;;;;;28.58;5.20;;;13.20;87.70;;;;;;5069116;28;20811;-70
2022/05/08 04:20:49;;;;;;;27.83;4.90;;;13.10;87.90;;;;;;5064416;28;20423;-70
2022/05/08 04:25:59;;;;;;;27.23;5.15;;;13.10;87.70;;;;;;5066651;28;20798;-70
2022/05/08 04:28:24;;;;;;;24.85;4.88;;;13.10;87.50;;;;;;5066543;28;20415;-70
2022/05/08 04:30:51;;;;;;;26.30;5.10;;;13.20;87.70;;;;;;5067173;28;20419;-69
2022/05/08 04:33:17;;;;;;;27.05;5.45;;;13.20;87.60;;;;;;5067078;28;20423;-69
2022/05/08 04:35:42;;;;;;;28.40;5.50;;;13.10;87.50;;;;;;5064539;28;20919;-69
2022/05/08 04:38:08;;;;;;;28.40;4.97;;;13.10;87.30;;;;;;5067421;28;20408;-70
2022/05/08 04:40:36;;;;;;;26.95;5.32;;;13.10;87.40;;;;;;5063677;28;20469;-69
2022/05/08 04:43:02;;;;;;;28.60;5.37;;;13.10;87.30;;;;;;5067593;28;20884;-69
2022/05/08 04:45:27;;;;;;;27.48;5.60;;;13.10;87.30;;;;;;5065416;28;20423;-69
2022/05/08 04:47:53;;;;;;;27.10;5.57;;;13.10;87.50;;;;;;5065439;28;20417;-69
2022/05/08 04:50:19;;;;;;;27.23;4.97;;;13.10;87.60;;;;;;5064404;28;20415;-69
2022/05/08 04:52:44;;;;;;;25.70;5.03;;;13.10;87.50;;;;;;5063479;28;20427;-68
2022/05/08 04:55:10;;;;;;;27.80;5.43;;;13.10;87.50;;;;;;5064349;28;20475;-69
2022/05/08 04:57:35;;;;;;;29.43;5.60;;;13.10;87.60;;;;;;5067597;28;20418;-69
2022/05/08 05:00:03;;;;;;;22.43;4.70;;;13.10;87.60;;;;;;5065738;28;20403;-68
2022/05/08 05:02:29;;;;;;;27.13;5.13;;;13.10;87.20;;;;;;5067166;28;20396;-68
2022/05/08 05:04:54;;;;;;;26.88;5.03;;;13.20;87.40;;;;;;5066998;28;20420;-68
2022/05/08 05:07:20;;;;;;;27.77;5.20;;;13.20;87.20;;;;;;5066512;28;20404;-66
2022/05/08 05:09:45;;;;;;;22.15;4.32;;;13.20;87.10;;;;;;5064720;28;20408;-67
2022/05/08 05:12:12;;;;;;;24.50;4.70;;;13.20;87.40;;;;;;5062998;28;20407;-69
2022/05/08 05:14:37;;;;;;;24.33;4.97;;;13.20;87.10;;;;;;5066847;28;20426;-69
2022/05/08 05:17:03;;;;;;;25.17;4.70;;;13.20;87.60;;;;;;5066958;28;20925;-69
2022/05/08 05:19:28;;;;;;;28.00;4.88;;;13.30;86.90;;;;;;5062295;28;20458;-67
2022/05/08 05:21:54;;;;;;;23.42;4.35;;;13.30;86.50;;;;;;5064793;28;20870;-68
2022/05/08 05:24:20;;;;;;;20.83;4.57;;;13.30;86.10;;;;;;5067037;28;21267;-68
2022/05/08 05:26:46;;;;;;;19.55;4.22;;;13.30;85.90;;;;;;5065486;28;20410;-69
2022/05/08 05:29:12;;;;;;;28.17;5.03;;;13.40;86.00;;;;;;5068228;28;20423;-69
2022/05/08 05:31:37;;;;;;;22.52;5.30;;;13.30;85.70;;;;;;5059665;28;20413;-68
2022/05/08 05:34:03;;;;;;;20.60;4.27;;;13.40;85.70;;;;;;5059962;28;20438;-66
2022/05/08 05:36:28;;;;;;;27.73;5.87;;;13.40;85.60;;;;;;5055336;28;20407;-70
2022/05/08 05:38:54;;;;;;;22.48;4.25;;;13.40;85.60;;;;;;5066139;28;20399;-68
2022/05/08 05:41:20;;;;;;;23.57;4.83;;;13.50;85.20;;;;;;5064675;28;20876;-70
2022/05/08 05:43:45;;;;;;;23.37;4.20;;;13.50;85.50;;;;;;5064405;28;20411;-68
2022/05/08 05:48:55;;;;;;;21.17;4.10;;;13.50;85.80;;;;;;5066045;28;20410;-69
2022/05/08 05:51:21;;;;;;;20.25;4.30;;;13.50;84.30;;;;;;5063366;28;20407;-69
2022/05/08 05:53:46;;;;;;;26.38;4.53;;;13.60;83.90;;;;;;5065531;28;20504;-69
2022/05/08 05:56:12;;;;;;;21.13;3.93;;;13.60;83.50;;;;;;5063977;28;20542;-69
2022/05/08 05:58:37;;;;;;;23.50;3.90;;;13.60;83.50;;;;;;5040463;28;20938;-68
2022/05/08 06:01:03;;;;;;;24.63;4.13;;;13.60;83.10;;;;;;5059954;28;20423;-68
2022/05/08 06:03:29;;;;;;;17.83;3.60;;;13.60;82.40;;;;;;5067149;28;20399;-68
2022/05/08 06:05:54;;;;;;;21.03;4.00;;;13.60;82.70;;;;;;5059159;28;20441;-68
2022/05/08 06:08:20;;;;;;;16.45;3.50;;;13.60;82.90;;;;;;5066099;28;20422;-67
2022/05/08 06:10:45;;;;;;;22.80;3.67;;;13.70;81.70;;;;;;5063172;28;20408;-68
2022/05/08 06:13:12;;;;;;;18.97;4.00;;;13.70;81.10;;;;;;5063966;28;20903;-67
2022/05/08 06:15:38;;;;;;;20.52;4.05;;;13.70;81.50;;;;;;5066841;28;20764;-69
2022/05/08 06:18:04;;;;;;;17.37;3.63;;;13.70;80.90;;;;;;5069418;28;20403;-68
2022/05/08 06:20:32;;;;;;;15.07;3.40;;;13.70;80.70;;;;;;5067841;28;20415;-67
2022/05/08 06:22:58;;;;;;;20.27;3.70;;;13.70;80.20;;;;;;5067768;28;20407;-68
2022/05/08 06:25:24;;;;;;;16.75;3.30;;;13.80;80.60;;;;;;5065726;28;20486;-68
2022/05/08 06:27:50;;;;;;;16.88;3.35;;;13.80;79.40;;;;;;5064170;28;20915;-68
2022/05/08 06:30:15;;;;;;;17.37;3.77;;;13.80;78.40;;;;;;5066679;28;20453;-68
2022/05/08 06:32:41;;;;;;;15.10;3.10;;;13.80;79.00;;;;;;5069071;28;20929;-68
2022/05/08 06:35:07;;;;;;;18.50;3.53;;;13.80;78.00;;;;;;5065847;28;20423;-68
2022/05/08 06:37:32;;;;;;;16.23;3.50;;;13.90;77.80;;;;;;5066349;28;20416;-68
2022/05/08 06:39:58;;;;;;;18.75;3.58;;;13.90;77.80;;;;;;5064322;28;20445;-67
2022/05/08 06:42:23;;;;;;;15.47;3.57;;;13.90;77.80;;;;;;5065685;28;20420;-67
2022/05/08 06:44:54;;;;;;;16.52;3.25;;;13.90;78.40;;;;;;5065700;28;20945;-69
2022/05/08 06:47:19;;;;;;;20.57;3.90;;;14.00;78.80;;;;;;5067202;28;20510;-70
2022/05/08 06:49:45;;;;;;;16.88;3.47;;;14.00;78.20;;;;;;5067123;28;20395;-66
2022/05/08 06:52:12;;;;;;;15.00;3.17;;;14.00;78.10;;;;;;5066938;28;20446;-67
2022/05/08 06:54:37;;;;;;;13.50;3.13;;;14.10;78.10;;;;;;5064318;28;20927;-66
2022/05/08 06:57:03;;;;;;;19.40;3.55;;;14.10;78.10;;;;;;5065515;28;20498;-65
2022/05/08 07:02:13;;;;;;;19.85;3.47;;;14.20;77.60;;;;;;5066066;28;20451;-64
2022/05/08 07:04:39;;;;;;;16.75;3.10;;;14.30;76.60;;;;;;5066693;28;20435;-66
2022/05/08 07:07:05;;;;;;;17.43;3.50;;;14.30;76.70;;;;;;5067430;28;20405;-65
2022/05/08 07:09:33;;;;;;;18.33;3.33;;;14.40;76.30;;;;;;5063045;28;20416;-66
2022/05/08 07:11:59;;;;;;;18.77;3.60;;;14.40;76.00;;;;;;5068173;28;20403;-65
2022/05/08 07:14:25;;;;;;;13.00;2.90;;;14.50;75.80;;;;;;5066174;28;21126;-65
2022/05/08 07:16:50;;;;;;;19.30;3.40;;;14.50;75.10;;;;;;5068557;28;20415;-66
2022/05/08 07:19:16;;;;;;;14.47;2.80;;;14.60;75.10;;;;;;5067274;28;20412;-66
2022/05/08 07:21:41;;;;;;;14.18;2.88;;;14.60;74.70;;;;;;5066277;28;20415;-65
2022/05/08 07:24:08;;;;;;;11.67;2.90;;;14.60;74.20;;;;;;5068261;28;20406;-65
2022/05/08 07:26:33;;;;;;;15.70;3.47;;;14.70;73.70;;;;;;5067938;28;20423;-66
2022/05/08 07:29:00;;;;;;;13.40;2.40;;;14.70;73.50;;;;;;5070492;28;20449;-65
2022/05/08 07:31:25;;;;;;;13.20;2.63;;;14.70;72.90;;;;;;5067545;28;20412;-65
2022/05/08 07:36:12;;;;;;;13.23;3.15;;;14.70;72.90;;;;;;5064726;28;20416;-65
2022/05/08 07:36:39;;;;;;;16.03;3.13;;;14.70;72.80;;;;;;5068016;28;20755;-65
2022/05/08 07:39:04;;;;;;;13.38;3.08;;;14.80;73.60;;;;;;5069177;28;20410;-65
2022/05/08 07:41:30;;;;;;;15.53;3.23;;;14.80;73.20;;;;;;5066924;28;20423;-66
2022/05/08 07:43:56;;;;;;;13.00;2.53;;;14.80;73.40;;;;;;5065807;28;20409;-66
2022/05/08 07:46:23;;;;;;;12.43;2.80;;;14.90;72.80;;;;;;5050231;28;20454;-65
2022/05/08 07:48:49;;;;;;;16.98;2.83;;;14.90;72.30;;;;;;5067783;28;20923;-66
2022/05/08 07:51:15;;;;;;;10.20;2.38;;;15.00;72.40;;;;;;5066339;28;20443;-65
2022/05/08 07:53:40;;;;;;;10.77;2.80;;;15.10;71.90;;;;;;5068925;28;20403;-66
2022/05/08 07:56:06;;;;;;;12.90;2.80;;;15.10;71.20;;;;;;5065086;28;20419;-67
2022/05/08 07:58:32;;;;;;;13.13;2.70;;;15.20;70.50;;;;;;5065656;28;20462;-66
2022/05/08 08:00:59;;;;;;;12.18;2.47;;;15.30;70.60;;;;;;5064623;28;20421;-65
2022/05/08 08:03:27;;;;;;;10.02;2.35;;;15.40;69.40;;;;;;5069461;28;20424;-66
2022/05/08 08:05:54;;;;;;;10.63;2.60;;;15.50;68.80;;;;;;5065749;28;20558;-65
2022/05/08 08:08:23;;;;;;;10.02;2.47;;;15.60;68.20;;;;;;5066246;28;20927;-66
2022/05/08 08:10:52;;;;;;;13.57;2.60;;;15.70;67.30;;;;;;5049611;28;20494;-66
2022/05/08 08:13:19;;;;;;;12.50;2.63;;;15.80;67.40;;;;;;5067257;28;20419;-66
2022/05/08 08:15:49;;;;;;;10.00;2.60;;;16.00;67.10;;;;;;5065763;28;20447;-66
2022/05/08 08:18:15;;;;;;;8.77;2.53;;;16.30;64.70;;;;;;5066746;28;20419;-65
2022/05/08 08:20:42;;;;;;;8.57;2.03;;;17.10;62.10;;;;;;5062087;28;20880;-65
2022/05/08 08:23:09;;;;;;;12.10;2.85;;;17.90;59.00;;;;;;5066647;28;20407;-65
2022/05/08 08:25:34;;;;;;;13.57;2.97;;;19.00;56.30;;;;;;5067476;28;20388;-67
2022/05/08 08:28:01;;;;;;;10.47;2.50;;;20.10;52.50;;;;;;5065723;28;20438;-60
2022/05/08 08:30:27;;;;;;;10.90;2.60;;;20.80;49.70;;;;;;5066302;28;20412;-65
2022/05/08 08:32:53;;;;;;;11.50;2.70;;;20.70;49.40;;;;;;5065726;28;20775;-66
2022/05/08 08:35:18;;;;;;;10.03;2.70;;;20.40;50.30;;;;;;5069078;28;20412;-66
2022/05/08 08:37:44;;;;;;;13.25;3.00;;;20.00;52.20;;;;;;5066228;28;20409;-65
2022/05/08 08:40:10;;;;;;;9.38;2.58;;;19.70;52.90;;;;;;5066734;28;20888;-67
2022/05/08 08:42:42;;;;;;;9.80;2.33;;;19.50;52.80;;;;;;5064362;28;20423;-66
2022/05/08 08:47:57;;;;;;;9.68;2.50;;;19.50;52.60;;;;;;5066424;28;20457;-68
2022/05/08 08:50:28;;;;;;;;;;;19.90;52.20;;;;;;5069095;28;20402;-65
2022/05/08 08:52:59;;;;;;;11.23;2.22;;;20.50;50.30;;;;;;5065420;28;20442;-68
2022/05/08 08:55:25;;;;;;;;;;;21.30;49.20;;;;;;5066073;28;20419;-67
2022/05/08 08:57:51;;;;;;;8.67;2.00;;;22.40;46.10;;;;;;5065710;28;20483;-67
2022/05/08 09:00:21;;;;;;;;;;;23.50;43.30;;;;;;5067797;28;20468;-67
2022/05/08 09:02:47;;;;;;;;;;;24.50;40.30;;;;;;5067229;28;20369;-68
2022/05/08 09:05:13;;;;;;;;;;;25.50;38.40;;;;;;5065640;28;19954;-65
2022/05/08 09:07:43;;;;;;;;;;;26.20;36.40;;;;;;5068398;28;19951;-65
2022/05/08 09:10:19;;;;;;;;;;;26.00;35.90;;;;;;5065942;28;19916;-66
2022/05/08 09:12:54;;;;;;;;;;;25.50;36.90;;;;;;5066226;28;19916;-65
2022/05/08 09:15:27;;;;;;;;;;;25.20;37.20;;;;;;5066561;28;20394;-67
2022/05/08 09:17:54;;;;;;;;;;;25.00;36.70;;;;;;5067658;28;19912;-66
2022/05/08 09:20:24;;;;;;;9.70;1.90;;;25.10;37.20;;;;;;5065988;28;20408;-67
2022/05/08 09:23:10;;;;;;;5.15;1.83;;;25.20;36.50;;;;;;5063141;28;20407;-67
2022/05/08 09:25:51;;;;;;;6.80;2.07;;;25.70;36.10;;;;;;5064496;28;20551;-70
2022/05/08 09:28:19;;;;;;;5.88;1.60;;;26.50;35.80;;;;;;5065438;28;20752;-66
2022/05/08 09:30:55;;;;;;;6.63;1.70;;;27.20;33.20;;;;;;5066659;28;20426;-66
2022/05/08 09:33:28;;;;;;;5.55;1.58;;;27.90;32.30;;;;;;5063728;28;21003;-67
2022/05/08 09:35:55;;;;;;;7.97;1.88;;;28.60;30.70;;;;;;5065638;28;20408;-68
2022/05/08 09:38:21;;;;;;;6.85;1.67;;;29.70;29.40;;;;;;5064797;28;20477;-68
2022/05/08 09:41:03;;;;;;;;;;;30.90;28.40;;;;;;5068866;28;20427;-67
2022/05/08 09:43:29;;;;;;;;;;;32.10;27.30;;;;;;5063677;28;19909;-65
2022/05/08 09:45:58;;;;;;;;;;;33.00;26.40;;;;;;5068552;28;21293;-66
2022/05/08 09:48:27;;;;;;;;;;;33.20;26.10;;;;;;5066700;28;19915;-68
2022/05/08 09:50:59;;;;;;;;;;;33.70;25.00;;;;;;5071996;28;20286;-68
2022/05/08 09:53:25;;;;;;;;;;;34.50;24.20;;;;;;5067880;28;19908;-67
2022/05/08 09:55:52;;;;;;;;;;;35.10;23.40;;;;;;5072595;28;20371;-67
2022/05/08 09:58:18;;;;;;;;;;;35.80;22.90;;;;;;5069834;28;20327;-68
2022/05/08 10:00:45;;;;;;;;;;;36.30;22.00;;;;;;5070882;28;19920;-70
2022/05/08 10:03:11;;;;;;;;;;;36.80;21.40;;;;;;5069634;28;19909;-69
2022/05/08 10:05:37;;;;;;;;;;;37.20;21.40;;;;;;5070738;28;20357;-68
2022/05/08 10:08:03;;;;;;;;;;;37.60;21.30;;;;;;5068891;28;20316;-69
2022/05/08 10:13:53;;;;;;;;;;;38.10;20.80;;;;;;5069389;28;19918;-67
2022/05/08 10:16:38;;;;;;;;;;;38.40;20.30;;;;;;5072683;28;19916;-68
2022/05/08 10:19:22;;;;;;;;;;;38.60;20.30;;;;;;5070601;28;20341;-68
2022/05/08 10:21:57;;;;;;;;;;;38.60;20.00;;;;;;5069429;28;19970;-67
2022/05/08 10:24:34;;;;;;;;;;;38.60;20.00;;;;;;5070870;28;19912;-66
2022/05/08 10:27:19;;;;;;;;;;;38.60;20.00;;;;;;5068435;28;19920;-68
2022/05/08 10:29:48;;;;;;;;;;;38.50;20.10;;;;;;5070375;28;19984;-68
2022/05/08 10:32:34;;;;;;;;;;;38.30;20.20;;;;;;5071471;28;19916;-68
2022/05/08 10:35:03;;;;;;;;;;;38.20;20.10;;;;;;5066127;28;19918;-67
2022/05/08 10:37:29;;;;;;;;;;;38.20;20.20;;;;;;5072712;28;20279;-68
2022/05/08 10:39:55;;;;;;;;;;;38.10;19.90;;;;;;5068300;28;19912;-69
2022/05/08 10:42:30;;;;;;;;;;;38.10;20.10;;;;;;5069669;28;20273;-68
2022/05/08 10:44:58;;;;;;;;;;;38.10;20.30;;;;;;5068784;28;20008;-68
2022/05/08 10:47:37;;;;;;;;;;;38.10;20.10;;;;;;5070778;28;19916;-67
2022/05/08 10:50:08;;;;;;;;;;;38.10;20.10;;;;;;5070343;28;19991;-67
2022/05/08 10:52:40;;;;;;;;;;;38.20;20.40;;;;;;5069658;28;19919;-67
2022/05/08 10:55:12;;;;;;;;;;;38.30;20.00;;;;;;5069653;28;20368;-67
2022/05/08 10:57:38;;;;;;;;;;;38.30;20.00;;;;;;5071159;28;19908;-69
2022/05/08 11:00:09;;;;;;;;;;;38.30;20.00;;;;;;5070328;28;19913;-66
2022/05/08 11:02:38;;;;;;;;;;;38.20;20.00;;;;;;5069082;28;19957;-69
2022/05/08 11:05:04;;;;;;;;;;;38.20;20.00;;;;;;5067336;28;19912;-66
2022/05/08 11:07:30;;;;;;;;;;;37.90;20.10;;;;;;5069233;28;20273;-67
2022/05/08 11:10:00;;;;;;;;;;;37.60;20.30;;;;;;5068973;28;20011;-67
2022/05/08 11:12:26;;;;;;;;;;;37.50;20.60;;;;;;5071811;28;19912;-68
2022/05/08 11:15:08;;;;;;;;;;;37.20;20.70;;;;;;5070095;28;19915;-67
2022/05/08 11:17:34;;;;;;;8.45;2.17;;;36.80;21.10;;;;;;5067153;28;20823;-69
2022/05/08 11:19:59;;;;;;;7.82;1.90;;;36.10;21.30;;;;;;5065269;28;20423;-67
2022/05/08 11:22:26;;;;;;;8.80;2.17;;;35.50;22.30;;;;;;5064959;28;20762;-68
2022/05/08 11:24:51;;;;;;;10.57;2.20;;;34.90;22.70;;;;;;5062665;28;20872;-69
2022/05/08 11:27:17;;;;;;;7.50;2.17;;;34.10;23.30;;;;;;5063206;28;20438;-67
2022/05/08 11:29:48;;;;;;;8.90;3.67;;;33.50;23.90;;;;;;5064039;28;20422;-67
2022/05/08 11:38:05;;;;;;;9.20;1.85;;;31.90;25.70;;;;;;5060416;28;20464;-66
2022/05/08 11:40:31;;;;;;;7.30;2.15;;;31.40;25.80;;;;;;5067620;28;20422;-66
2022/05/08 11:42:57;;;;;;;8.33;2.20;;;31.00;26.10;;;;;;5066059;28;20495;-67
2022/05/08 11:45:23;;;;;;;6.13;1.90;;;30.70;26.90;;;;;;5069326;28;20569;-67
2022/05/08 11:47:53;;;;;;;8.13;2.10;;;30.50;27.40;;;;;;5065011;28;20415;-68
2022/05/08 11:50:20;;;;;;;8.02;2.15;;;30.30;27.90;;;;;;5066604;28;20488;-68
2022/05/08 11:52:47;;;;;;;8.52;2.35;;;30.00;28.10;;;;;;5050523;28;20414;-67
2022/05/08 11:55:13;;;;;;;9.10;2.53;;;30.00;27.60;;;;;;5067709;28;20412;-69
2022/05/08 11:57:43;;;;;;;7.80;2.40;;;29.80;27.60;;;;;;5065526;28;20968;-69
2022/05/08 12:00:12;;;;;;;7.43;2.13;;;29.60;28.30;;;;;;5066211;28;20448;-68
2022/05/08 12:02:48;;;;;;;10.07;2.70;;;29.40;28.30;;;;;;5068353;28;20399;-68
2022/05/08 12:05:22;;;;;;;7.55;2.42;;;29.30;29.00;;;;;;5065340;28;20443;-68
2022/05/08 12:07:48;;;;;;;7.55;2.50;;;29.20;28.70;;;;;;5066012;28;20878;-68
2022/05/08 12:10:18;;;;;;;10.07;2.60;;;29.20;29.20;;;;;;5067531;28;20494;-68
2022/05/08 12:12:44;;;;;;;7.15;2.28;;;29.20;28.90;;;;;;5064887;28;20403;-69
2022/05/08 12:15:13;;;;;;;7.50;2.30;;;29.10;28.90;;;;;;5066366;28;20772;-70
2022/05/08 12:17:41;;;;;;;6.72;2.10;;;29.10;28.70;;;;;;5067938;28;20412;-68
2022/05/08 12:20:26;;;;;;;7.70;2.35;;;29.00;28.80;;;;;;5064700;28;20588;-66
2022/05/08 12:23:00;;;;;;;11.07;2.60;;;29.10;28.90;;;;;;5066846;28;21011;-68
2022/05/08 12:25:27;;;;;;;8.82;2.30;;;29.10;28.80;;;;;;5069666;28;20419;-68
2022/05/08 12:27:52;;;;;;;8.82;2.30;;;29.00;29.10;;;;;;5065912;28;20409;-68
2022/05/08 12:30:19;;;;;;;7.97;2.40;;;29.00;29.30;;;;;;5064140;28;20918;-69
2022/05/08 12:32:45;;;;;;;8.63;2.50;;;29.00;29.10;;;;;;5049118;28;20416;-69
2022/05/08 12:35:12;;;;;;;10.63;2.25;;;29.10;29.10;;;;;;5066368;28;20490;-67
2022/05/08 12:37:38;;;;;;;8.83;2.33;;;29.30;28.60;;;;;;5066303;28;20426;-68
2022/05/08 12:40:06;;;;;;;10.65;2.30;;;29.40;29.10;;;;;;5063129;28;21099;-68
2022/05/08 12:42:31;;;;;;;9.88;2.50;;;29.60;28.70;;;;;;5067139;28;20454;-69
2022/05/08 12:44:57;;;;;;;7.60;2.30;;;29.70;28.40;;;;;;5065287;28;20410;-67
2022/05/08 12:47:23;;;;;;;7.80;2.30;;;29.60;28.60;;;;;;5067641;28;20490;-68
2022/05/08 12:49:50;;;;;;;7.63;2.17;;;29.50;28.40;;;;;;5064209;28;20525;-69
2022/05/08 12:52:16;;;;;;;6.90;2.20;;;29.50;27.90;;;;;;5067074;28;20419;-69
2022/05/08 12:54:42;;;;;;;8.68;2.20;;;29.30;27.50;;;;;;5065602;28;20506;-68
2022/05/08 12:57:10;;;;;;;9.70;2.30;;;29.20;28.10;;;;;;5060840;28;20514;-68
2022/05/08 12:59:49;;;;;;;9.07;2.00;;;29.30;28.70;;;;;;5065225;28;20427;-67
2022/05/08 13:02:18;;;;;;;5.43;2.00;;;29.20;28.60;;;;;;5067502;28;20757;-69
2022/05/08 13:04:45;;;;;;;6.15;2.20;;;29.20;28.70;;;;;;5062304;28;20403;-68
2022/05/08 13:07:11;;;;;;;11.90;2.40;;;29.20;27.90;;;;;;5068132;28;20403;-68
2022/05/08 13:09:37;;;;;;;7.82;2.28;;;29.10;27.70;;;;;;5063275;28;20411;-68
2022/05/08 13:12:04;;;;;;;6.00;2.07;;;29.00;27.80;;;;;;5065613;28;20903;-68
2022/05/08 13:14:30;;;;;;;8.13;2.30;;;28.90;28.00;;;;;;5065298;28;20427;-68
2022/05/08 13:17:00;;;;;;;9.38;2.35;;;28.80;28.70;;;;;;5065918;28;20892;-67
2022/05/08 13:19:29;;;;;;;9.47;2.30;;;28.70;29.20;;;;;;5064908;28;20425;-68